createdAt,value
2023-05-22T00:00:20.892Z,20.10
2023-05-22T00:02:48.415Z,20.00
2023-05-22T00:05:18.278Z,20.00
2023-05-22T00:07:46.288Z,20.00
2023-05-22T00:10:13.211Z,19.90
2023-05-22T00:12:40.336Z,19.90
2023-05-22T00:15:08.133Z,19.90
2023-05-22T00:17:35.413Z,19.90
2023-05-22T00:20:10.876Z,19.80
2023-05-22T00:22:37.953Z,19.80
2023-05-22T00:25:06.260Z,19.80
2023-05-22T00:27:34.032Z,19.80
2023-05-22T00:30:01.258Z,19.70
2023-05-22T00:32:28.739Z,19.70
2023-05-22T00:34:55.665Z,19.70
2023-05-22T00:37:23.198Z,19.60
2023-05-22T00:39:50.156Z,19.60
2023-05-22T00:42:18.390Z,19.60
2023-05-22T00:44:45.821Z,19.50
2023-05-22T00:47:12.939Z,19.50
2023-05-22T00:49:41.473Z,19.50
2023-05-22T00:52:11.111Z,19.50
2023-05-22T00:54:38.793Z,19.40
2023-05-22T00:57:06.498Z,19.40
2023-05-22T00:59:33.625Z,19.40
2023-05-22T01:02:01.523Z,19.30
2023-05-22T01:04:32.802Z,19.30
2023-05-22T01:07:02.808Z,19.30
2023-05-22T01:09:30.243Z,19.30
2023-05-22T01:12:31.018Z,19.20
2023-05-22T01:15:43.898Z,19.10
2023-05-22T01:18:33.613Z,19.20
2023-05-22T01:21:24.598Z,19.10
2023-05-22T01:24:19.366Z,19.00
2023-05-22T01:27:28.451Z,19.00
2023-05-22T01:30:38.786Z,18.90
2023-05-22T01:33:09.304Z,18.90
2023-05-22T01:35:40.709Z,18.90
2023-05-22T01:38:09.567Z,18.90
2023-05-22T01:40:38.088Z,18.90
2023-05-22T01:43:05.275Z,18.80
2023-05-22T01:45:32.581Z,18.80
2023-05-22T01:47:59.466Z,18.80
2023-05-22T01:50:26.575Z,18.80
2023-05-22T01:53:14.228Z,18.70
2023-05-22T01:55:59.362Z,18.70
2023-05-22T01:58:37.562Z,18.70
2023-05-22T02:01:06.467Z,18.70
2023-05-22T02:03:36.226Z,18.60
2023-05-22T02:06:08.744Z,18.60
2023-05-22T02:08:41.748Z,18.60
2023-05-22T02:11:13.646Z,18.60
2023-05-22T02:13:41.814Z,18.60
2023-05-22T02:16:09.626Z,18.50
2023-05-22T02:18:36.575Z,18.50
2023-05-22T02:21:05.695Z,18.50
2023-05-22T02:23:32.565Z,18.50
2023-05-22T02:25:59.533Z,18.40
2023-05-22T02:28:27.266Z,18.40
2023-05-22T02:30:54.147Z,18.40
2023-05-22T02:33:21.471Z,18.40
2023-05-22T02:35:50.175Z,18.40
2023-05-22T02:38:17.103Z,18.30
2023-05-22T02:40:45.002Z,18.30
2023-05-22T02:43:12.125Z,18.30
2023-05-22T02:45:39.042Z,18.20
2023-05-22T02:48:06.628Z,18.20
2023-05-22T02:50:33.558Z,18.20
2023-05-22T02:53:00.730Z,18.20
2023-05-22T02:55:27.563Z,18.20
2023-05-22T02:57:54.406Z,18.10
2023-05-22T03:00:22.610Z,18.10
2023-05-22T03:02:49.998Z,18.10
2023-05-22T03:05:17.965Z,18.00
2023-05-22T03:07:48.424Z,18.00
2023-05-22T03:10:15.688Z,18.00
2023-05-22T03:12:42.863Z,18.00
2023-05-22T03:15:11.400Z,17.90
2023-05-22T03:17:40.024Z,17.90
2023-05-22T03:20:08.711Z,17.90
2023-05-22T03:22:35.789Z,17.90
2023-05-22T03:25:04.274Z,17.80
2023-05-22T03:27:31.150Z,17.80
2023-05-22T03:29:58.162Z,17.80
2023-05-22T03:32:25.347Z,17.80
2023-05-22T03:34:52.199Z,17.70
2023-05-22T03:37:19.287Z,17.70
2023-05-22T03:39:47.134Z,17.70
2023-05-22T03:42:21.331Z,17.70
2023-05-22T03:44:49.302Z,17.60
2023-05-22T03:47:16.937Z,17.60
2023-05-22T03:49:43.860Z,17.60
2023-05-22T03:52:11.231Z,17.60
2023-05-22T03:54:38.243Z,17.50
2023-05-22T03:57:05.983Z,17.50
2023-05-22T03:59:33.082Z,17.50
2023-05-22T04:02:01.145Z,17.50
2023-05-22T04:04:28.968Z,17.50
2023-05-22T04:06:58.346Z,17.50
2023-05-22T04:09:35.530Z,17.40
2023-05-22T04:12:03.582Z,17.50
2023-05-22T04:14:30.699Z,17.40
2023-05-22T04:16:57.542Z,17.40
2023-05-22T04:19:24.672Z,17.40
2023-05-22T04:21:52.475Z,17.40
2023-05-22T04:24:19.626Z,17.40
2023-05-22T04:26:46.515Z,17.40
2023-05-22T04:29:14.355Z,17.40
2023-05-22T04:31:42.101Z,17.50
2023-05-22T04:34:15.146Z,17.50
2023-05-22T04:36:45.001Z,17.50
2023-05-22T04:39:12.910Z,17.50
2023-05-22T04:41:40.445Z,17.50
2023-05-22T04:44:07.632Z,17.50
2023-05-22T04:46:37.913Z,17.50
2023-05-22T04:49:04.823Z,17.50
2023-05-22T04:51:32.829Z,17.60
2023-05-22T04:53:59.972Z,17.60
2023-05-22T04:56:36.106Z,17.60
2023-05-22T04:59:05.455Z,17.60
2023-05-22T05:01:35.032Z,17.70
2023-05-22T05:04:03.916Z,17.70
2023-05-22T05:06:31.003Z,17.70
2023-05-22T05:08:58.074Z,17.70
2023-05-22T05:11:24.938Z,17.80
2023-05-22T05:13:51.854Z,17.80
2023-05-22T05:16:20.496Z,17.80
2023-05-22T05:18:47.468Z,17.90
2023-05-22T05:21:14.391Z,17.90
2023-05-22T05:23:41.697Z,18.00
2023-05-22T05:26:08.604Z,18.00
2023-05-22T05:28:35.546Z,18.00
2023-05-22T05:31:02.847Z,18.10
2023-05-22T05:33:47.772Z,18.10
2023-05-22T05:36:25.799Z,18.20
2023-05-22T05:38:54.180Z,18.20
2023-05-22T05:41:21.583Z,18.30
2023-05-22T05:43:53.828Z,18.30
2023-05-22T05:46:21.303Z,18.40
2023-05-22T05:48:48.238Z,18.40
2023-05-22T05:51:16.328Z,18.50
2023-05-22T05:53:43.989Z,18.60
2023-05-22T05:56:11.722Z,18.60
2023-05-22T05:58:38.749Z,18.70
2023-05-22T06:01:47.128Z,18.80
2023-05-22T06:04:20.064Z,18.80
2023-05-22T06:06:48.322Z,18.90
2023-05-22T06:09:15.364Z,19.00
2023-05-22T06:12:06.258Z,19.10
2023-05-22T06:14:33.407Z,19.10
2023-05-22T06:17:00.296Z,19.20
2023-05-22T06:19:27.285Z,19.30
2023-05-22T06:21:54.590Z,19.40
2023-05-22T06:24:21.745Z,19.40
2023-05-22T06:26:48.576Z,19.50
2023-05-22T06:29:15.494Z,19.60
2023-05-22T06:31:44.209Z,19.70
2023-05-22T06:34:11.219Z,19.70
2023-05-22T06:36:38.350Z,19.80
2023-05-22T06:39:05.238Z,19.90
2023-05-22T06:41:52.087Z,20.00
2023-05-22T06:44:18.988Z,20.10
2023-05-22T06:46:49.053Z,20.10
2023-05-22T06:49:22.402Z,20.20
2023-05-22T06:51:52.428Z,20.30
2023-05-22T06:54:21.168Z,20.40
2023-05-22T06:56:51.179Z,20.50
2023-05-22T06:59:20.930Z,20.60
2023-05-22T07:02:06.200Z,20.80
2023-05-22T07:04:54.184Z,20.90
2023-05-22T07:07:35.869Z,21.00
2023-05-22T07:10:03.417Z,21.20
2023-05-22T07:12:30.433Z,21.30
2023-05-22T07:14:59.923Z,21.40
2023-05-22T07:17:27.398Z,21.50
2023-05-22T07:19:56.269Z,21.70
2023-05-22T07:22:23.687Z,21.80
2023-05-22T07:24:50.671Z,22.00
2023-05-22T07:27:18.985Z,22.10
2023-05-22T07:29:48.248Z,22.30
2023-05-22T07:32:15.467Z,22.40
2023-05-22T07:34:44.312Z,22.50
2023-05-22T07:37:14.090Z,22.70
2023-05-22T07:39:42.461Z,22.90
2023-05-22T07:42:10.185Z,23.00
2023-05-22T07:44:43.766Z,23.20
2023-05-22T07:47:10.740Z,23.40
2023-05-22T07:49:37.834Z,23.60
2023-05-22T07:52:05.087Z,23.70
2023-05-22T07:54:31.945Z,23.90
2023-05-22T07:57:03.187Z,24.00
2023-05-22T07:59:34.257Z,24.10
2023-05-22T08:02:02.227Z,24.30
2023-05-22T08:04:30.025Z,24.40
2023-05-22T08:06:58.330Z,24.60
2023-05-22T08:09:25.336Z,24.70
2023-05-22T08:11:52.184Z,24.90
2023-05-22T08:14:19.032Z,25.00
2023-05-22T08:16:46.015Z,25.20
2023-05-22T08:19:13.130Z,25.30
2023-05-22T08:21:40.521Z,25.40
2023-05-22T08:24:08.486Z,25.50
2023-05-22T08:26:36.204Z,25.70
2023-05-22T08:29:03.549Z,25.80
2023-05-22T08:31:30.797Z,25.90
2023-05-22T08:34:02.256Z,26.00
2023-05-22T08:36:31.634Z,26.10
2023-05-22T08:38:58.524Z,26.20
2023-05-22T08:41:25.609Z,26.30
2023-05-22T08:43:52.947Z,26.30
2023-05-22T08:46:26.315Z,26.40
2023-05-22T08:48:57.963Z,26.50
2023-05-22T08:51:35.643Z,26.50
2023-05-22T08:54:08.239Z,26.60
2023-05-22T08:56:39.683Z,26.70
2023-05-22T08:59:10.836Z,26.80
2023-05-22T09:01:37.905Z,27.00
2023-05-22T09:04:05.184Z,27.10
2023-05-22T09:06:32.660Z,27.20
2023-05-22T09:09:00.178Z,27.30
2023-05-22T09:11:27.526Z,27.50
2023-05-22T09:14:11.167Z,27.60
2023-05-22T09:16:49.689Z,27.80
2023-05-22T09:19:17.056Z,27.90
2023-05-22T09:21:48.081Z,28.10
2023-05-22T09:24:15.198Z,28.20
2023-05-22T09:26:42.299Z,28.40
2023-05-22T09:29:09.546Z,28.50
2023-05-22T09:31:44.755Z,28.60
2023-05-22T09:34:17.846Z,28.80
2023-05-22T09:36:44.838Z,28.80
2023-05-22T09:39:11.823Z,28.90
2023-05-22T09:41:39.909Z,29.00
2023-05-22T09:44:15.635Z,29.00
2023-05-22T09:46:46.394Z,29.10
2023-05-22T09:49:16.175Z,29.20
2023-05-22T09:51:48.339Z,29.30
2023-05-22T09:54:18.752Z,29.30
2023-05-22T09:56:50.525Z,29.40
2023-05-22T09:59:22.428Z,29.40
2023-05-22T10:01:50.952Z,29.50
2023-05-22T10:04:21.743Z,29.50
2023-05-22T10:06:53.651Z,29.50
2023-05-22T10:09:31.238Z,29.60
2023-05-22T10:12:04.456Z,29.70
2023-05-22T10:14:32.059Z,29.80
2023-05-22T10:17:03.086Z,29.90
2023-05-22T10:19:32.636Z,29.90
2023-05-22T10:22:01.790Z,30.00
2023-05-22T10:24:29.941Z,30.10
2023-05-22T10:26:57.804Z,30.20
2023-05-22T10:29:47.330Z,30.20
2023-05-22T10:32:27.653Z,30.40
2023-05-22T10:35:19.849Z,30.40
2023-05-22T10:38:08.605Z,30.50
2023-05-22T10:40:36.406Z,30.60
2023-05-22T10:43:06.610Z,30.70
2023-05-22T10:45:33.561Z,30.80
2023-05-22T10:48:12.536Z,30.80
2023-05-22T10:50:40.782Z,31.00
2023-05-22T10:53:28.667Z,31.00
2023-05-22T10:55:57.433Z,31.10
2023-05-22T10:58:31.493Z,31.10
2023-05-22T11:01:16.318Z,31.20
2023-05-22T11:03:53.628Z,31.30
2023-05-22T11:06:45.770Z,31.30
2023-05-22T11:09:28.955Z,31.40
2023-05-22T11:12:24.162Z,31.50
2023-05-22T11:14:57.063Z,31.70
2023-05-22T11:17:29.185Z,31.80
2023-05-22T11:20:21.097Z,31.80
2023-05-22T11:23:06.832Z,31.80
2023-05-22T11:25:37.622Z,31.90
2023-05-22T11:28:06.547Z,32.00
2023-05-22T11:30:35.036Z,32.00
2023-05-22T11:33:02.620Z,32.00
2023-05-22T11:35:29.949Z,32.10
2023-05-22T11:37:57.000Z,32.10
2023-05-22T11:40:29.707Z,32.10
2023-05-22T11:42:57.250Z,32.20
2023-05-22T11:45:24.446Z,32.20
2023-05-22T11:47:51.859Z,32.20
2023-05-22T11:52:50.029Z,32.30
2023-05-22T11:55:16.916Z,32.30
2023-05-22T11:57:44.206Z,32.30
2023-05-22T12:00:11.873Z,32.40
2023-05-22T12:02:39.360Z,32.40
2023-05-22T12:05:10.151Z,32.40
2023-05-22T12:07:37.617Z,32.40
2023-05-22T12:10:07.250Z,32.40
2023-05-22T12:12:34.498Z,32.40
2023-05-22T12:15:04.613Z,32.50
2023-05-22T12:17:31.534Z,32.50
2023-05-22T12:20:01.830Z,32.40
2023-05-22T12:22:29.819Z,32.40
2023-05-22T12:24:56.768Z,32.40
2023-05-22T12:27:23.691Z,32.40
2023-05-22T12:29:52.937Z,32.40
2023-05-22T12:32:22.235Z,32.40
2023-05-22T12:34:50.295Z,32.40
2023-05-22T12:37:28.618Z,32.40
2023-05-22T12:40:00.855Z,32.50
2023-05-22T12:42:28.834Z,32.50
2023-05-22T12:44:58.189Z,32.50
2023-05-22T12:47:25.625Z,32.50
2023-05-22T12:49:53.049Z,32.50
2023-05-22T12:52:20.334Z,32.50
2023-05-22T12:54:47.314Z,32.50
2023-05-22T12:57:14.312Z,32.60
2023-05-22T12:59:41.207Z,32.60
2023-05-22T13:02:09.644Z,32.60
2023-05-22T13:04:36.769Z,32.70
2023-05-22T13:07:03.975Z,32.70
2023-05-22T13:09:31.051Z,32.80
2023-05-22T13:11:57.942Z,32.80
2023-05-22T13:14:25.025Z,32.80
2023-05-22T13:16:52.003Z,32.90
2023-05-22T13:19:19.124Z,32.90
2023-05-22T13:21:46.054Z,32.90
2023-05-22T13:24:12.911Z,33.00
2023-05-22T13:26:39.729Z,33.10
2023-05-22T13:29:06.608Z,33.10
2023-05-22T13:31:37.199Z,33.00
2023-05-22T13:34:04.728Z,32.90
2023-05-22T13:36:32.077Z,32.80
2023-05-22T13:38:59.061Z,32.60
2023-05-22T13:41:26.219Z,32.50
2023-05-22T13:43:53.310Z,32.30
2023-05-22T13:46:22.238Z,32.10
2023-05-22T13:48:49.384Z,31.90
2023-05-22T13:51:16.653Z,31.70
2023-05-22T13:53:43.563Z,31.50
2023-05-22T13:56:10.660Z,31.20
2023-05-22T13:58:37.552Z,31.00
2023-05-22T14:01:04.517Z,30.90
2023-05-22T14:03:31.597Z,30.70
2023-05-22T14:05:58.703Z,30.60
2023-05-22T14:08:25.807Z,30.50
2023-05-22T14:10:53.106Z,30.40
2023-05-22T14:13:20.004Z,30.30
2023-05-22T14:15:47.180Z,30.20
2023-05-22T14:18:16.397Z,30.20
2023-05-22T14:20:45.075Z,30.10
2023-05-22T14:23:15.244Z,30.10
2023-05-22T14:25:45.116Z,30.10
2023-05-22T14:28:12.559Z,30.10
2023-05-22T14:30:39.808Z,30.00
2023-05-22T14:33:07.202Z,30.00
2023-05-22T14:35:34.644Z,30.00
2023-05-22T14:38:06.839Z,29.90
2023-05-22T14:40:33.749Z,29.90
2023-05-22T14:43:00.611Z,29.90
2023-05-22T14:45:27.455Z,29.90
2023-05-22T14:47:55.085Z,29.90
2023-05-22T14:50:22.083Z,29.90
2023-05-22T14:52:49.824Z,30.00
2023-05-22T14:55:17.376Z,30.10
2023-05-22T14:57:44.375Z,30.20
2023-05-22T15:00:12.272Z,30.30
2023-05-22T15:02:40.354Z,30.40
2023-05-22T15:05:10.661Z,30.40
2023-05-22T15:10:09.281Z,30.50
2023-05-22T15:12:36.389Z,30.60
2023-05-22T15:15:03.546Z,30.60
2023-05-22T15:17:30.631Z,30.60
2023-05-22T15:19:57.561Z,30.60
2023-05-22T15:22:24.412Z,30.60
2023-05-22T15:25:07.975Z,30.60
2023-05-22T15:27:36.040Z,30.70
2023-05-22T15:30:05.662Z,30.60
2023-05-22T15:32:33.171Z,30.60
2023-05-22T15:35:00.384Z,30.60
2023-05-22T15:37:29.732Z,30.50
2023-05-22T15:39:58.364Z,30.40
2023-05-22T15:42:25.426Z,30.40
2023-05-22T15:44:52.260Z,30.40
2023-05-22T15:47:19.345Z,30.40
2023-05-22T15:49:46.228Z,30.40
2023-05-22T15:52:13.299Z,30.40
2023-05-22T15:54:40.235Z,30.40
2023-05-22T15:57:07.137Z,30.40
2023-05-22T15:59:34.082Z,30.40
2023-05-22T16:02:00.983Z,30.30
2023-05-22T16:04:28.197Z,30.20
2023-05-22T16:06:55.085Z,30.20
2023-05-22T16:09:22.158Z,30.10
2023-05-22T16:11:49.243Z,30.00
2023-05-22T16:14:16.165Z,30.00
2023-05-22T16:16:43.759Z,29.90
2023-05-22T16:19:11.416Z,29.90
2023-05-22T16:21:39.128Z,29.80
2023-05-22T16:24:06.966Z,29.80
2023-05-22T16:26:34.014Z,29.80
2023-05-22T16:29:01.006Z,29.80
2023-05-22T16:31:28.910Z,29.80
2023-05-22T16:33:55.948Z,29.80
2023-05-22T16:36:24.162Z,29.80
2023-05-22T16:38:52.598Z,29.80
2023-05-22T16:41:19.460Z,29.80
2023-05-22T16:43:46.868Z,29.80
2023-05-22T16:46:13.737Z,29.80
2023-05-22T16:48:40.622Z,29.80
2023-05-22T16:51:07.917Z,29.80
2023-05-22T16:53:37.335Z,29.70
2023-05-22T16:56:05.412Z,29.70
2023-05-22T16:58:35.082Z,29.70
2023-05-22T17:01:02.148Z,29.60
2023-05-22T17:03:29.307Z,29.60
2023-05-22T17:05:56.402Z,29.50
2023-05-22T17:08:23.238Z,29.50
2023-05-22T17:10:50.632Z,29.50
2023-05-22T17:13:20.777Z,29.40
2023-05-22T17:15:49.384Z,29.40
2023-05-22T17:18:19.666Z,29.30
2023-05-22T17:20:49.479Z,29.20
2023-05-22T17:23:17.090Z,29.10
2023-05-22T17:25:46.389Z,29.00
2023-05-22T17:28:14.733Z,28.90
2023-05-22T17:30:43.201Z,28.80
2023-05-22T17:33:11.226Z,28.70
2023-05-22T17:35:38.632Z,28.70
2023-05-22T17:38:07.784Z,28.60
2023-05-22T17:40:44.223Z,28.50
2023-05-22T17:43:12.253Z,28.50
2023-05-22T17:45:39.305Z,28.40
2023-05-22T17:48:08.012Z,28.30
2023-05-22T17:50:35.416Z,28.30
2023-05-22T17:53:02.373Z,28.20
2023-05-22T17:55:29.281Z,28.10
2023-05-22T17:57:56.364Z,28.00
2023-05-22T18:14:30.230Z,27.40
2023-05-22T18:16:58.200Z,27.30
2023-05-22T18:19:25.136Z,27.30
2023-05-22T18:21:53.532Z,27.20
2023-05-22T18:24:25.970Z,27.20
2023-05-22T18:26:52.837Z,27.10
2023-05-22T18:29:19.798Z,27.00
2023-05-22T18:31:46.713Z,27.00
2023-05-22T18:34:13.715Z,26.90
2023-05-22T18:36:41.264Z,26.90
2023-05-22T18:39:09.222Z,26.80
2023-05-22T18:41:37.237Z,26.70
2023-05-22T18:44:04.366Z,26.70
2023-05-22T18:46:31.594Z,26.60
2023-05-22T18:48:58.470Z,26.50
2023-05-22T18:51:27.033Z,26.40
2023-05-22T18:53:53.883Z,26.30
2023-05-22T18:56:21.177Z,26.20
2023-05-22T18:58:48.058Z,26.20
2023-05-22T19:01:16.592Z,26.10
2023-05-22T19:03:43.794Z,26.00
2023-05-22T19:06:10.763Z,25.90
2023-05-22T19:08:37.633Z,25.90
2023-05-22T19:11:04.511Z,25.80
2023-05-22T19:13:31.495Z,25.70
2023-05-22T19:15:58.359Z,25.70
2023-05-22T19:18:27.318Z,25.60
2023-05-22T19:20:54.160Z,25.60
2023-05-22T19:23:21.252Z,25.50
2023-05-22T19:25:48.778Z,25.50
2023-05-22T19:28:15.590Z,25.40
2023-05-22T19:30:43.073Z,25.30
2023-05-22T19:33:11.334Z,25.20
2023-05-22T19:35:38.604Z,25.10
2023-05-22T19:38:06.072Z,25.10
2023-05-22T19:40:33.178Z,25.00
2023-05-22T19:43:01.730Z,24.90
2023-05-22T19:45:28.917Z,24.90
2023-05-22T19:47:55.977Z,24.80
2023-05-22T19:50:23.152Z,24.80
2023-05-22T19:52:50.257Z,24.80
2023-05-22T19:55:17.632Z,24.70
2023-05-22T19:57:44.734Z,24.70
2023-05-22T20:00:12.879Z,24.60
2023-05-22T20:02:40.041Z,24.60
2023-05-22T20:05:09.405Z,24.60
2023-05-22T20:07:36.709Z,24.50
2023-05-22T20:10:06.448Z,24.50
2023-05-22T20:12:33.916Z,24.40
2023-05-22T20:15:02.610Z,24.40
2023-05-22T20:17:30.301Z,24.30
2023-05-22T20:20:00.308Z,24.30
2023-05-22T20:22:27.775Z,24.20
2023-05-22T20:24:54.728Z,24.20
2023-05-22T20:27:21.657Z,24.10
2023-05-22T20:29:51.232Z,24.10
2023-05-22T20:32:18.232Z,24.00
2023-05-22T20:34:46.363Z,24.00
2023-05-22T20:37:13.646Z,23.90
2023-05-22T20:39:41.686Z,23.90
2023-05-22T20:42:09.384Z,23.80
2023-05-22T20:44:36.595Z,23.70
2023-05-22T20:47:04.212Z,23.70
2023-05-22T20:49:34.525Z,23.60
2023-05-22T20:52:02.843Z,23.60
2023-05-22T20:54:34.020Z,23.50
2023-05-22T20:57:02.054Z,23.50
2023-05-22T20:59:29.054Z,23.40
2023-05-22T21:01:57.701Z,23.40
2023-05-22T21:04:25.651Z,23.40
2023-05-22T21:06:52.853Z,23.30
2023-05-22T21:09:20.009Z,23.30
2023-05-22T21:11:47.118Z,23.20
2023-05-22T21:14:14.454Z,23.10
2023-05-22T21:16:41.341Z,23.10
2023-05-22T21:19:08.605Z,23.10
2023-05-22T21:21:41.611Z,23.10
2023-05-22T21:24:09.838Z,23.00
2023-05-22T21:26:37.066Z,23.00
2023-05-22T21:29:04.582Z,22.90
2023-05-22T21:31:33.887Z,22.90
2023-05-22T21:34:02.467Z,22.90
2023-05-22T21:36:29.325Z,22.90
2023-05-22T21:38:57.657Z,22.80
2023-05-22T21:41:24.528Z,22.80
2023-05-22T21:43:51.491Z,22.70
2023-05-22T21:46:18.386Z,22.70
2023-05-22T21:48:46.122Z,22.70
2023-05-22T21:51:12.993Z,22.60
2023-05-22T21:53:39.958Z,22.60
2023-05-22T21:56:08.180Z,22.60
2023-05-22T21:58:35.294Z,22.50
2023-05-22T22:01:02.379Z,22.50
2023-05-22T22:03:29.359Z,22.50
2023-05-22T22:05:56.369Z,22.40
2023-05-22T22:08:23.442Z,22.40
2023-05-22T22:10:50.774Z,22.30
2023-05-22T22:13:17.609Z,22.30
2023-05-22T22:15:44.482Z,22.30
2023-05-22T22:18:14.845Z,22.20
2023-05-22T22:20:45.099Z,22.20
2023-05-22T22:23:12.885Z,22.10
2023-05-22T22:25:40.046Z,22.10
2023-05-22T22:28:07.360Z,22.10
2023-05-22T22:30:35.090Z,22.00
2023-05-22T22:33:02.469Z,22.00
2023-05-22T22:35:29.534Z,22.00
2023-05-22T22:37:56.529Z,21.90
2023-05-22T22:40:25.332Z,21.90
2023-05-22T22:42:53.447Z,21.80
2023-05-22T22:45:20.886Z,21.80
2023-05-22T22:47:48.156Z,21.80
2023-05-22T22:50:15.045Z,21.70
2023-05-22T22:52:45.644Z,21.70
2023-05-22T22:55:13.374Z,21.60
2023-05-22T22:57:44.528Z,21.60
2023-05-22T23:00:13.255Z,21.50
2023-05-22T23:02:40.862Z,21.50
2023-05-22T23:05:08.780Z,21.50
2023-05-22T23:07:36.490Z,21.40
2023-05-22T23:10:03.766Z,21.40
2023-05-22T23:12:35.023Z,21.30
2023-05-22T23:15:02.934Z,21.30
2023-05-22T23:17:30.090Z,21.30
2023-05-22T23:19:57.233Z,21.20
2023-05-22T23:22:24.227Z,21.20
2023-05-22T23:24:51.393Z,21.20
2023-05-22T23:27:18.636Z,21.10
2023-05-22T23:29:45.801Z,21.10
2023-05-22T23:32:14.679Z,21.00
2023-05-22T23:34:42.259Z,21.00
2023-05-22T23:37:09.737Z,20.90
2023-05-22T23:39:36.603Z,20.90
2023-05-22T23:42:03.754Z,20.90
2023-05-22T23:44:31.631Z,20.80
2023-05-22T23:46:58.726Z,20.80
2023-05-22T23:49:26.349Z,20.70
2023-05-22T23:51:53.320Z,20.70
2023-05-22T23:54:20.546Z,20.70
2023-05-22T23:56:47.557Z,20.70
2023-05-22T23:59:14.745Z,20.60
